首页
METAR-TAF:

METAR-TAF

机场 :

阿比林, 得克萨斯州, 美国

纬度: 32-24-37N, 经度: 099-40-54W, 海拔: 545米

当前天气观测

该预报发布于1小时和21分钟前的22:52 UTC
风速9节,风向西南,有时为19节阵风
温度 32°C
湿度 16%
气压 1007 hPa
能見度: 16.1公里
天空无云

METAR: KABI 262252Z 23009G19KT 10SM CLR 32/03 A2975 RMK AO2 PK WND 26030/2223 SLP050 T03220028

时间: 18:13 (00:13 UTC)

预报

该预报发布于39分钟前的23:34 UTC
预报有效从27日的 00点(UTC)到 27日的 24点(UTC)
风速10节,风向西转西南,有时为18节阵风
能見度: 10公里
多云层高于25000英尺
从 27日的 0045点(UTC)
风速11节,风向南转西南
能見度: 10公里
多云层高于25000英尺
从 27日的 1500点(UTC)
风速13节,风向西转西南,有时为20节阵风
能見度: 10公里
多云层高于25000英尺
从 27日的 1800点(UTC)
风速21节,风向西,有时为31节阵风
能見度: 10公里
多云层高于25000英尺

TAF: KABI 262334Z 2700/2724 24010G18KT P6SM BKN250 FM270045 20011KT P6SM BKN250 FM271500 24013G20KT P6SM BKN250 FM271800 26021G31KT P6SM BKN250

超过4000个机场的气象观测和天气预报(METAR&TAF报告)。

可查询的气象台以黄色和红色小点在地图上表示。

将鼠标移到小点上方,可查看气象台名称。

然后点击查看天气观测和预报。

如需切换地图:点击带黑十字的绿色按钮放大地图;点击带横线的绿色按钮缩小地图;或者点击绿色箭头查看邻近地区的地图。


METAR-TAF: